createdAt,value
2018-09-27T00:01:26.372Z,6.91
2018-09-27T00:03:54.576Z,6.96
2018-09-27T00:06:22.859Z,6.92
2018-09-27T00:08:51.159Z,7.13
2018-09-27T00:11:19.532Z,7.08
2018-09-27T00:13:47.956Z,7.03
2018-09-27T00:16:16.167Z,7.01
2018-09-27T00:18:44.447Z,6.99
2018-09-27T00:21:12.620Z,6.96
2018-09-27T00:23:40.882Z,6.91
2018-09-27T00:26:09.289Z,6.79
2018-09-27T00:28:37.608Z,6.58
2018-09-27T00:31:06.084Z,6.47
2018-09-27T00:33:34.422Z,6.56
2018-09-27T00:36:02.804Z,6.66
2018-09-27T00:38:31.179Z,6.70
2018-09-27T00:40:59.506Z,6.67
2018-09-27T00:43:27.801Z,6.58
2018-09-27T00:45:56.036Z,6.48
2018-09-27T00:48:24.267Z,6.36
2018-09-27T00:50:52.468Z,6.33
2018-09-27T00:53:20.673Z,6.39
2018-09-27T00:55:48.938Z,6.37
2018-09-27T00:58:17.127Z,6.40
2018-09-27T01:00:45.340Z,6.44
2018-09-27T01:03:13.644Z,6.47
2018-09-27T01:05:41.959Z,6.46
2018-09-27T01:08:10.193Z,6.38
2018-09-27T01:10:38.419Z,6.22
2018-09-27T01:13:06.788Z,6.29
2018-09-27T01:15:34.987Z,6.23
2018-09-27T01:18:04.146Z,6.23
2018-09-27T01:20:32.351Z,6.21
2018-09-27T01:23:00.580Z,6.15
2018-09-27T01:25:28.968Z,6.16
2018-09-27T01:27:57.244Z,6.07
2018-09-27T01:30:25.546Z,6.02
2018-09-27T01:32:53.998Z,6.00
2018-09-27T01:35:22.265Z,5.93
2018-09-27T01:37:50.555Z,5.76
2018-09-27T01:40:18.824Z,5.62
2018-09-27T01:42:47.192Z,5.48
2018-09-27T01:45:15.934Z,5.36
2018-09-27T01:47:44.311Z,5.30
2018-09-27T01:50:12.606Z,5.25
2018-09-27T01:52:40.837Z,5.26
2018-09-27T01:55:09.257Z,5.31
2018-09-27T01:57:37.508Z,5.34
2018-09-27T02:00:05.795Z,5.36
2018-09-27T02:02:33.999Z,5.39
2018-09-27T02:05:02.239Z,5.58
2018-09-27T02:07:30.539Z,5.66
2018-09-27T02:09:58.795Z,5.70
2018-09-27T02:12:27.065Z,5.83
2018-09-27T02:14:55.381Z,6.00
2018-09-27T02:17:23.738Z,6.09
2018-09-27T02:19:52.058Z,6.03
2018-09-27T02:22:20.451Z,5.93
2018-09-27T02:24:48.811Z,5.78
2018-09-27T02:27:17.090Z,5.85
2018-09-27T02:29:45.337Z,5.74
2018-09-27T02:32:13.586Z,5.55
2018-09-27T02:34:41.924Z,5.43
2018-09-27T02:37:10.247Z,5.46
2018-09-27T02:39:38.631Z,5.37
2018-09-27T02:42:07.019Z,5.29
2018-09-27T02:44:35.327Z,5.17
2018-09-27T02:47:03.595Z,5.24
2018-09-27T02:49:31.843Z,5.38
2018-09-27T02:52:00.103Z,5.28
2018-09-27T02:54:28.323Z,5.43
2018-09-27T02:56:56.646Z,5.53
2018-09-27T02:59:24.882Z,5.54
2018-09-27T03:01:53.129Z,5.37
2018-09-27T03:04:21.419Z,5.35
2018-09-27T03:06:49.667Z,5.39
2018-09-27T03:09:18.177Z,5.31
2018-09-27T03:11:46.410Z,5.23
2018-09-27T03:14:14.640Z,5.21
2018-09-27T03:16:42.883Z,5.21
2018-09-27T03:19:11.150Z,5.24
2018-09-27T03:21:39.436Z,5.14
2018-09-27T03:24:07.657Z,5.10
2018-09-27T03:26:35.991Z,5.09
2018-09-27T03:29:04.256Z,5.11
2018-09-27T03:31:32.522Z,5.11
2018-09-27T03:34:00.842Z,5.03
2018-09-27T03:36:29.128Z,4.84
2018-09-27T03:38:57.458Z,4.93
2018-09-27T03:41:25.778Z,5.00
2018-09-27T03:43:53.947Z,5.17
2018-09-27T03:46:22.166Z,5.17
2018-09-27T03:48:50.409Z,5.28
2018-09-27T03:51:18.690Z,5.28
2018-09-27T03:53:47.047Z,5.26
2018-09-27T03:56:15.230Z,5.45
2018-09-27T03:58:43.436Z,5.48
2018-09-27T04:01:11.748Z,5.41
2018-09-27T04:03:40.024Z,5.30
2018-09-27T04:06:08.331Z,5.34
2018-09-27T04:08:36.599Z,5.20
2018-09-27T04:11:04.926Z,5.22
2018-09-27T04:13:33.177Z,5.22
2018-09-27T04:16:01.921Z,5.17
2018-09-27T04:18:30.228Z,5.07
2018-09-27T04:20:58.725Z,5.05
2018-09-27T04:23:26.947Z,4.96
2018-09-27T04:25:55.183Z,4.93
2018-09-27T04:28:23.434Z,4.94
2018-09-27T04:30:51.698Z,4.95
2018-09-27T04:33:19.907Z,4.83
2018-09-27T04:35:48.704Z,4.85
2018-09-27T04:38:16.944Z,4.81
2018-09-27T04:40:45.285Z,4.80
2018-09-27T04:43:13.642Z,4.81
2018-09-27T04:45:48.446Z,4.77
2018-09-27T04:48:16.696Z,4.79
2018-09-27T04:50:45.009Z,4.77
2018-09-27T04:53:13.227Z,4.77
2018-09-27T04:55:41.465Z,4.70
2018-09-27T04:58:09.934Z,4.68
2018-09-27T05:00:38.319Z,4.69
2018-09-27T05:03:06.879Z,4.83
2018-09-27T05:05:35.163Z,4.72
2018-09-27T05:08:03.543Z,4.70
2018-09-27T05:10:31.927Z,5.04
2018-09-27T05:13:00.225Z,5.10
2018-09-27T05:15:28.541Z,5.00
2018-09-27T05:17:56.800Z,4.95
2018-09-27T05:20:25.242Z,5.02
2018-09-27T05:22:53.610Z,4.98
2018-09-27T05:25:21.931Z,4.83
2018-09-27T05:27:50.252Z,4.83
2018-09-27T05:30:18.492Z,4.90
2018-09-27T05:32:46.838Z,5.01
2018-09-27T05:35:15.179Z,5.06
2018-09-27T05:37:43.546Z,5.22
2018-09-27T05:40:11.892Z,5.54
2018-09-27T05:42:40.154Z,5.41
2018-09-27T05:45:08.892Z,5.45
2018-09-27T05:47:37.207Z,5.47
2018-09-27T05:50:06.636Z,5.27
2018-09-27T05:52:34.928Z,5.07
2018-09-27T05:55:03.280Z,4.97
2018-09-27T05:57:31.700Z,5.06
2018-09-27T06:00:00.150Z,5.16
2018-09-27T06:02:28.585Z,5.27
2018-09-27T06:04:56.927Z,5.45
2018-09-27T06:07:25.264Z,5.54
2018-09-27T06:09:53.614Z,5.64
2018-09-27T06:12:21.961Z,5.64
2018-09-27T06:14:50.307Z,5.72
2018-09-27T06:17:18.633Z,6.10
2018-09-27T06:19:47.003Z,6.21
2018-09-27T06:22:15.306Z,6.10
2018-09-27T06:24:43.616Z,6.12
2018-09-27T06:27:11.947Z,6.30
2018-09-27T06:29:40.229Z,6.47
2018-09-27T06:32:08.566Z,6.59
2018-09-27T06:34:36.931Z,6.48
2018-09-27T06:37:05.244Z,6.67
2018-09-27T06:39:33.499Z,6.66
2018-09-27T06:42:01.849Z,6.75
2018-09-27T06:44:30.165Z,6.82
2018-09-27T06:46:58.547Z,6.86
2018-09-27T06:49:26.751Z,6.98
2018-09-27T06:51:55.079Z,7.15
2018-09-27T06:54:23.351Z,7.30
2018-09-27T06:56:51.783Z,7.29
2018-09-27T06:59:20.183Z,7.36
2018-09-27T07:01:48.450Z,7.47
2018-09-27T07:04:16.964Z,7.49
2018-09-27T07:06:45.235Z,7.61
2018-09-27T07:09:14.168Z,7.66
2018-09-27T07:11:42.467Z,7.66
2018-09-27T07:14:11.457Z,7.74
2018-09-27T07:16:39.831Z,7.88
2018-09-27T07:19:08.778Z,8.18
2018-09-27T07:21:37.075Z,8.17
2018-09-27T07:24:05.379Z,8.12
2018-09-27T07:26:33.723Z,8.20
2018-09-27T07:29:02.119Z,8.33
2018-09-27T07:31:30.448Z,8.43
2018-09-27T07:33:58.683Z,8.68
2018-09-27T07:36:26.982Z,8.93
2018-09-27T07:38:55.245Z,9.08
2018-09-27T07:41:23.535Z,9.18
2018-09-27T07:43:51.863Z,9.33
2018-09-27T07:46:20.155Z,9.74
2018-09-27T07:48:48.369Z,9.89
2018-09-27T07:51:16.717Z,9.97
2018-09-27T07:53:45.023Z,10.02
2018-09-27T07:56:13.298Z,10.24
2018-09-27T07:58:41.656Z,10.35
2018-09-27T08:01:10.027Z,10.35
2018-09-27T08:03:38.468Z,10.36
2018-09-27T08:06:06.936Z,10.41
2018-09-27T08:08:35.296Z,10.56
2018-09-27T08:11:03.760Z,10.68
2018-09-27T08:13:32.100Z,10.90
2018-09-27T08:16:00.461Z,11.01
2018-09-27T08:18:28.871Z,11.21
2018-09-27T08:20:57.258Z,11.35
2018-09-27T08:23:25.473Z,11.49
2018-09-27T08:25:53.731Z,11.53
2018-09-27T08:28:22.115Z,11.81
2018-09-27T08:30:50.503Z,11.90
2018-09-27T08:33:18.826Z,12.12
2018-09-27T08:35:47.347Z,12.43
2018-09-27T08:38:16.163Z,12.58
2018-09-27T08:40:44.324Z,12.64
2018-09-27T08:43:12.743Z,12.82
2018-09-27T08:45:41.228Z,12.88
2018-09-27T08:48:09.635Z,13.13
2018-09-27T08:50:37.951Z,13.15
2018-09-27T08:53:06.475Z,13.34
2018-09-27T08:55:35.021Z,13.38
2018-09-27T08:58:03.303Z,13.61
2018-09-27T09:00:31.623Z,13.83
2018-09-27T09:02:59.985Z,13.92
2018-09-27T09:05:28.287Z,13.93
2018-09-27T09:07:56.592Z,14.02
2018-09-27T09:10:24.867Z,14.22
2018-09-27T09:12:53.309Z,14.58
2018-09-27T09:15:21.805Z,14.55
2018-09-27T09:17:50.107Z,14.69
2018-09-27T09:20:18.455Z,14.87
2018-09-27T09:22:47.352Z,15.17
2018-09-27T09:25:15.687Z,15.25
2018-09-27T09:27:43.949Z,15.56
2018-09-27T09:30:12.320Z,15.83
2018-09-27T09:32:40.530Z,15.81
2018-09-27T09:35:08.875Z,15.81
2018-09-27T09:37:37.170Z,15.95
2018-09-27T09:40:05.732Z,16.03
2018-09-27T09:42:34.059Z,16.09
2018-09-27T09:45:02.528Z,16.22
2018-09-27T09:47:30.770Z,16.32
2018-09-27T09:49:59.117Z,16.31
2018-09-27T09:52:27.421Z,16.44
2018-09-27T09:54:55.764Z,16.47
2018-09-27T09:57:24.173Z,16.48
2018-09-27T09:59:52.479Z,16.69
2018-09-27T10:02:20.728Z,16.91
2018-09-27T10:04:48.960Z,17.07
2018-09-27T10:07:17.390Z,17.23
2018-09-27T10:09:45.697Z,17.28
2018-09-27T10:12:14.071Z,17.49
2018-09-27T10:14:42.379Z,17.54
2018-09-27T10:17:10.643Z,17.68
2018-09-27T10:19:38.963Z,17.61
2018-09-27T10:22:07.511Z,17.93
2018-09-27T10:24:35.796Z,18.03
2018-09-27T10:27:04.120Z,18.13
2018-09-27T10:29:32.412Z,18.22
2018-09-27T10:32:00.788Z,18.41
2018-09-27T10:34:29.139Z,18.52
2018-09-27T10:36:57.435Z,18.55
2018-09-27T10:39:25.808Z,18.67
2018-09-27T10:41:54.202Z,18.87
2018-09-27T10:44:22.563Z,19.07
2018-09-27T10:46:50.926Z,19.29
2018-09-27T10:49:19.230Z,19.41
2018-09-27T10:51:47.563Z,19.52
2018-09-27T10:54:15.883Z,19.35
2018-09-27T10:56:44.144Z,19.35
2018-09-27T10:59:12.438Z,19.39
2018-09-27T11:01:40.734Z,19.51
2018-09-27T11:04:09.143Z,19.56
2018-09-27T11:06:37.487Z,19.70
2018-09-27T11:09:07.919Z,19.79
2018-09-27T11:11:36.314Z,19.91
2018-09-27T11:14:04.468Z,20.01
2018-09-27T11:16:32.772Z,20.10
2018-09-27T11:19:01.051Z,20.30
2018-09-27T11:21:29.299Z,20.31
2018-09-27T11:23:57.811Z,20.24
2018-09-27T11:26:26.133Z,20.37
2018-09-27T11:28:59.856Z,20.43
2018-09-27T11:32:36.315Z,20.61
2018-09-27T11:35:04.544Z,20.67
2018-09-27T11:37:32.825Z,20.53
2018-09-27T11:40:01.133Z,20.61
2018-09-27T11:42:29.424Z,20.77
2018-09-27T11:44:57.634Z,20.88
2018-09-27T11:47:26.022Z,20.88
2018-09-27T11:49:54.552Z,20.99
2018-09-27T11:52:22.905Z,20.94
2018-09-27T11:54:51.211Z,21.22
2018-09-27T11:57:19.700Z,21.02
2018-09-27T11:59:48.012Z,21.14
2018-09-27T12:02:16.300Z,21.34
2018-09-27T12:04:44.604Z,21.21
2018-09-27T12:07:13.424Z,21.29
2018-09-27T12:09:41.896Z,21.49
2018-09-27T12:12:10.375Z,21.35
2018-09-27T12:14:38.705Z,21.57
2018-09-27T12:17:06.988Z,21.61
2018-09-27T12:19:35.306Z,21.50
2018-09-27T12:22:03.513Z,21.57
2018-09-27T12:24:31.829Z,21.82
2018-09-27T12:27:00.326Z,21.95
2018-09-27T12:29:28.520Z,21.93
2018-09-27T12:31:56.893Z,22.01
2018-09-27T12:34:25.433Z,21.93
2018-09-27T12:36:53.718Z,22.19
2018-09-27T12:39:22.005Z,22.13
2018-09-27T12:41:50.362Z,22.37
2018-09-27T12:44:18.552Z,22.25
2018-09-27T12:46:46.874Z,22.41
2018-09-27T12:49:15.151Z,22.20
2018-09-27T12:51:43.463Z,22.14
2018-09-27T12:54:11.547Z,22.12
2018-09-27T12:56:39.818Z,22.26
2018-09-27T12:59:08.273Z,22.16
2018-09-27T13:01:36.844Z,22.23
2018-09-27T13:04:05.263Z,22.34
2018-09-27T13:06:33.557Z,22.44
2018-09-27T13:09:02.010Z,22.46
2018-09-27T13:11:30.184Z,22.70
2018-09-27T13:13:58.480Z,22.80
2018-09-27T13:16:26.707Z,22.93
2018-09-27T13:18:57.940Z,22.81
2018-09-27T13:21:23.248Z,22.85
2018-09-27T13:23:51.526Z,22.89
2018-09-27T13:26:19.702Z,22.96
2018-09-27T13:28:47.992Z,23.11
2018-09-27T13:31:16.496Z,23.26
2018-09-27T13:33:44.676Z,23.07
2018-09-27T13:36:12.980Z,23.05
2018-09-27T13:38:41.288Z,22.88
2018-09-27T13:41:09.565Z,22.89
2018-09-27T13:43:37.913Z,22.98
2018-09-27T13:46:06.385Z,23.17
2018-09-27T13:48:34.757Z,23.16
2018-09-27T13:51:03.079Z,23.23
2018-09-27T13:53:31.384Z,23.42
2018-09-27T13:55:59.760Z,23.52
2018-09-27T13:58:28.059Z,23.61
2018-09-27T14:00:56.397Z,23.47
2018-09-27T14:03:24.730Z,23.32
2018-09-27T14:05:52.878Z,23.37
2018-09-27T14:08:21.227Z,23.50
2018-09-27T14:10:49.556Z,23.38
2018-09-27T14:13:17.925Z,23.19
2018-09-27T14:15:46.330Z,23.27
2018-09-27T14:18:14.507Z,23.40
2018-09-27T14:20:42.916Z,23.50
2018-09-27T14:23:11.140Z,23.42
2018-09-27T14:25:39.562Z,23.28
2018-09-27T14:28:07.700Z,23.32
2018-09-27T14:30:36.060Z,23.24
2018-09-27T14:33:04.277Z,23.25
2018-09-27T14:35:32.630Z,23.29
2018-09-27T14:38:00.870Z,23.13
2018-09-27T14:40:29.135Z,23.24
2018-09-27T14:42:57.639Z,23.35
2018-09-27T14:45:25.940Z,23.53
2018-09-27T14:47:54.324Z,23.54
2018-09-27T14:50:22.494Z,23.60
2018-09-27T14:52:50.760Z,23.17
2018-09-27T14:55:19.202Z,23.26
2018-09-27T14:57:47.481Z,23.42
2018-09-27T15:00:15.723Z,23.29
2018-09-27T15:02:43.968Z,23.25
2018-09-27T15:05:12.261Z,23.18
2018-09-27T15:07:40.626Z,23.32
2018-09-27T15:10:09.021Z,23.14
2018-09-27T15:12:37.295Z,23.19
2018-09-27T15:15:06.327Z,23.18
2018-09-27T15:17:34.643Z,23.17
2018-09-27T15:20:02.957Z,23.10
2018-09-27T15:22:31.279Z,23.07
2018-09-27T15:24:59.591Z,23.06
2018-09-27T15:27:27.850Z,23.09
2018-09-27T15:29:56.198Z,23.04
2018-09-27T15:32:24.595Z,23.06
2018-09-27T15:34:52.840Z,22.89
2018-09-27T15:37:21.168Z,22.91
2018-09-27T15:39:49.488Z,22.93
2018-09-27T15:42:17.759Z,22.86
2018-09-27T15:44:46.140Z,22.84
2018-09-27T15:47:14.528Z,22.86
2018-09-27T15:49:42.897Z,22.67
2018-09-27T15:52:11.167Z,22.73
2018-09-27T15:54:39.349Z,22.76
2018-09-27T15:57:07.745Z,22.65
2018-09-27T15:59:35.936Z,22.59
2018-09-27T16:02:04.458Z,22.42
2018-09-27T16:04:32.725Z,22.33
2018-09-27T16:07:01.088Z,22.23
2018-09-27T16:09:29.363Z,22.29
2018-09-27T16:11:57.813Z,22.21
2018-09-27T16:14:26.050Z,22.17
2018-09-27T16:16:54.375Z,22.15
2018-09-27T16:19:22.588Z,22.06
2018-09-27T16:21:50.846Z,22.05
2018-09-27T16:24:19.140Z,21.97
2018-09-27T16:26:47.404Z,21.93
2018-09-27T16:29:15.634Z,21.73
2018-09-27T16:31:43.968Z,21.65
2018-09-27T16:34:12.320Z,21.64
2018-09-27T16:36:40.652Z,21.55
2018-09-27T16:39:09.909Z,21.48
2018-09-27T16:41:38.608Z,21.36
2018-09-27T16:44:07.107Z,21.07
2018-09-27T16:46:35.672Z,20.92
2018-09-27T16:49:04.516Z,20.93
2018-09-27T16:51:32.739Z,20.84
2018-09-27T16:54:01.064Z,20.77
2018-09-27T16:56:29.384Z,20.57
2018-09-27T16:58:57.646Z,20.48
2018-09-27T17:02:05.562Z,20.33
2018-09-27T17:04:33.868Z,19.74
2018-09-27T17:07:02.218Z,19.42
2018-09-27T17:09:30.420Z,19.23
2018-09-27T17:11:59.301Z,19.08
2018-09-27T17:14:27.576Z,18.83
2018-09-27T17:16:55.856Z,18.57
2018-09-27T17:19:24.172Z,18.47
2018-09-27T17:21:52.492Z,18.39
2018-09-27T17:24:20.888Z,18.27
2018-09-27T17:26:49.159Z,18.18
2018-09-27T17:29:17.420Z,18.07
2018-09-27T17:31:45.771Z,17.94
2018-09-27T17:34:13.947Z,18.01
2018-09-27T17:36:42.230Z,17.70
2018-09-27T17:39:10.547Z,17.51
2018-09-27T17:41:38.884Z,17.37
2018-09-27T17:44:07.442Z,17.23
2018-09-27T17:46:35.940Z,17.11
2018-09-27T17:49:04.204Z,16.94
2018-09-27T17:51:32.494Z,16.84
2018-09-27T17:54:00.907Z,16.79
2018-09-27T17:56:29.160Z,16.67
2018-09-27T17:58:57.590Z,16.54
2018-09-27T18:01:25.837Z,16.47
2018-09-27T18:03:54.261Z,16.42
2018-09-27T18:06:22.499Z,16.46
2018-09-27T18:08:50.923Z,16.41
2018-09-27T18:11:19.356Z,16.35
2018-09-27T18:13:47.926Z,16.26
2018-09-27T18:16:16.435Z,16.19
2018-09-27T18:18:44.809Z,16.09
2018-09-27T18:21:13.120Z,16.04
2018-09-27T18:23:41.656Z,15.96
2018-09-27T18:26:10.083Z,15.92
2018-09-27T18:28:38.544Z,15.84
2018-09-27T18:31:07.040Z,15.79
2018-09-27T18:33:35.419Z,15.74
2018-09-27T18:36:03.715Z,15.67
2018-09-27T18:38:32.001Z,15.64
2018-09-27T18:41:00.257Z,15.58
2018-09-27T18:43:28.515Z,15.48
2018-09-27T18:45:57.053Z,15.35
2018-09-27T18:48:25.282Z,15.17
2018-09-27T18:50:53.708Z,15.03
2018-09-27T18:53:22.886Z,14.91
2018-09-27T18:55:51.110Z,14.82
2018-09-27T18:58:19.359Z,14.83
2018-09-27T19:00:47.724Z,14.73
2018-09-27T19:03:15.949Z,14.70
2018-09-27T19:05:44.279Z,14.70
2018-09-27T19:08:14.283Z,14.51
2018-09-27T19:10:42.701Z,14.47
2018-09-27T19:13:11.151Z,14.42
2018-09-27T19:15:39.473Z,14.45
2018-09-27T19:18:07.743Z,14.38
2018-09-27T19:20:36.038Z,14.28
2018-09-27T19:23:04.291Z,14.16
2018-09-27T19:25:33.314Z,14.04
2018-09-27T19:28:01.698Z,13.96
2018-09-27T19:30:29.991Z,13.90
2018-09-27T19:32:58.309Z,13.84
2018-09-27T19:35:26.595Z,13.78
2018-09-27T19:37:54.864Z,13.72
2018-09-27T19:40:23.128Z,13.67
2018-09-27T19:42:51.416Z,13.57
2018-09-27T19:45:19.724Z,13.51
2018-09-27T19:47:48.015Z,13.37
2018-09-27T19:50:16.192Z,13.27
2018-09-27T19:52:44.463Z,13.21
2018-09-27T19:55:13.356Z,13.14
2018-09-27T19:57:41.640Z,13.04
2018-09-27T20:00:10.119Z,13.02
2018-09-27T20:02:38.435Z,13.04
2018-09-27T20:05:06.711Z,13.05
2018-09-27T20:07:35.042Z,13.14
2018-09-27T20:10:03.410Z,13.08
2018-09-27T20:12:31.654Z,13.00
2018-09-27T20:14:59.945Z,12.94
2018-09-27T20:17:28.369Z,12.90
2018-09-27T20:19:56.743Z,12.88
2018-09-27T20:22:25.056Z,12.75
2018-09-27T20:24:53.460Z,12.61
2018-09-27T20:27:21.755Z,12.50
2018-09-27T20:29:49.979Z,12.47
2018-09-27T20:32:18.207Z,12.51
2018-09-27T20:34:46.504Z,12.52
2018-09-27T20:37:14.909Z,12.51
2018-09-27T20:39:43.181Z,12.52
2018-09-27T20:42:11.363Z,12.48
2018-09-27T20:44:39.683Z,12.43
2018-09-27T20:47:07.900Z,12.45
2018-09-27T20:49:37.116Z,12.48
2018-09-27T20:52:05.410Z,12.45
2018-09-27T20:54:36.584Z,12.36
2018-09-27T20:57:04.805Z,12.30
2018-09-27T20:59:33.105Z,12.16
2018-09-27T21:02:01.453Z,12.18
2018-09-27T21:04:29.739Z,12.12
2018-09-27T21:06:57.974Z,12.07
2018-09-27T21:09:26.297Z,12.07
2018-09-27T21:11:54.577Z,12.02
2018-09-27T21:14:22.939Z,12.02
2018-09-27T21:16:51.234Z,11.95
2018-09-27T21:19:19.480Z,11.90
2018-09-27T21:21:47.740Z,11.87
2018-09-27T21:24:16.040Z,11.82
2018-09-27T21:26:44.360Z,11.76
2018-09-27T21:29:12.676Z,11.72
2018-09-27T21:31:40.950Z,11.70
2018-09-27T21:34:09.094Z,11.70
2018-09-27T21:36:37.364Z,11.69
2018-09-27T21:39:06.827Z,11.74
2018-09-27T21:41:35.096Z,11.65
2018-09-27T21:44:03.388Z,11.57
2018-09-27T21:46:31.652Z,11.51
2018-09-27T21:48:59.908Z,11.49
2018-09-27T21:51:28.349Z,11.41
2018-09-27T21:53:56.687Z,11.36
2018-09-27T21:56:28.035Z,11.54
2018-09-27T21:58:56.299Z,11.65
2018-09-27T22:02:40.512Z,11.50
2018-09-27T22:05:08.753Z,11.42
2018-09-27T22:07:37.011Z,11.35
2018-09-27T22:10:05.369Z,11.35
2018-09-27T22:12:33.697Z,11.39
2018-09-27T22:15:02.012Z,11.33
2018-09-27T22:17:30.282Z,11.26
2018-09-27T22:19:58.533Z,11.19
2018-09-27T22:22:26.815Z,11.15
2018-09-27T22:24:54.994Z,11.10
2018-09-27T22:27:23.232Z,11.09
2018-09-27T22:29:51.516Z,11.05
2018-09-27T22:32:19.899Z,11.00
2018-09-27T22:34:48.191Z,10.90
2018-09-27T22:37:16.494Z,10.79
2018-09-27T22:39:44.845Z,10.71
2018-09-27T22:42:13.172Z,10.73
2018-09-27T22:44:41.695Z,10.72
2018-09-27T22:47:09.920Z,10.71
2018-09-27T22:49:38.195Z,10.76
2018-09-27T22:52:06.601Z,10.71
2018-09-27T22:54:34.803Z,10.69
2018-09-27T22:57:03.339Z,10.66
2018-09-27T22:59:31.600Z,10.62
2018-09-27T23:01:59.863Z,10.58
2018-09-27T23:04:28.172Z,10.60
2018-09-27T23:06:56.470Z,10.62
2018-09-27T23:09:24.811Z,10.59
2018-09-27T23:11:53.132Z,10.60
2018-09-27T23:14:21.411Z,10.54
2018-09-27T23:16:49.796Z,10.53
2018-09-27T23:19:18.067Z,10.50
2018-09-27T23:21:46.348Z,10.48
2018-09-27T23:24:14.744Z,10.45
2018-09-27T23:26:43.072Z,10.42
2018-09-27T23:29:11.328Z,10.37
2018-09-27T23:31:39.575Z,10.34
2018-09-27T23:34:07.864Z,10.33
2018-09-27T23:36:36.141Z,10.28
2018-09-27T23:39:05.532Z,10.28
2018-09-27T23:41:33.745Z,10.22
2018-09-27T23:44:02.023Z,10.18
2018-09-27T23:46:30.301Z,10.13
2018-09-27T23:48:58.694Z,10.12
2018-09-27T23:51:27.329Z,10.20
2018-09-27T23:53:55.606Z,10.13
2018-09-27T23:56:23.932Z,10.11
2018-09-27T23:58:52.147Z,10.10
